sensor_id;sensor_type;location;lat;lon;timestamp;P1;durP1;ratioP1;P2;durP2;ratioP2
14098;SDS011;7126;48.458;7.930;2022-10-31T00:02:22;0.65;;;0.65;;
14098;SDS011;7126;48.458;7.930;2022-10-31T00:04:47;0.70;;;0.70;;
14098;SDS011;7126;48.458;7.930;2022-10-31T00:07:13;0.63;;;0.63;;
14098;SDS011;7126;48.458;7.930;2022-10-31T00:09:38;0.70;;;0.70;;
14098;SDS011;7126;48.458;7.930;2022-10-31T00:12:04;0.50;;;0.50;;
14098;SDS011;7126;48.458;7.930;2022-10-31T00:14:30;0.93;;;0.60;;
14098;SDS011;7126;48.458;7.930;2022-10-31T00:16:55;0.60;;;0.60;;
14098;SDS011;7126;48.458;7.930;2022-10-31T00:19:21;0.85;;;0.85;;
14098;SDS011;7126;48.458;7.930;2022-10-31T00:21:46;0.70;;;0.70;;
14098;SDS011;7126;48.458;7.930;2022-10-31T00:24:12;1.13;;;0.82;;
14098;SDS011;7126;48.458;7.930;2022-10-31T00:26:37;0.57;;;0.50;;
14098;SDS011;7126;48.458;7.930;2022-10-31T00:29:03;1.08;;;0.98;;
14098;SDS011;7126;48.458;7.930;2022-10-31T00:31:29;0.50;;;0.50;;
14098;SDS011;7126;48.458;7.930;2022-10-31T00:33:55;2.53;;;0.40;;
14098;SDS011;7126;48.458;7.930;2022-10-31T00:36:21;0.73;;;0.68;;
14098;SDS011;7126;48.458;7.930;2022-10-31T00:38:47;1.13;;;0.63;;
14098;SDS011;7126;48.458;7.930;2022-10-31T00:41:14;2.47;;;1.08;;
14098;SDS011;7126;48.458;7.930;2022-10-31T00:43:41;0.55;;;0.55;;
14098;SDS011;7126;48.458;7.930;2022-10-31T00:46:07;0.98;;;0.98;;
14098;SDS011;7126;48.458;7.930;2022-10-31T00:48:33;0.73;;;0.73;;
14098;SDS011;7126;48.458;7.930;2022-10-31T00:50:58;0.88;;;0.88;;
14098;SDS011;7126;48.458;7.930;2022-10-31T00:53:24;0.80;;;0.80;;
14098;SDS011;7126;48.458;7.930;2022-10-31T00:55:50;0.70;;;0.70;;
14098;SDS011;7126;48.458;7.930;2022-10-31T00:58:15;0.65;;;0.65;;
14098;SDS011;7126;48.458;7.930;2022-10-31T01:00:41;0.50;;;0.50;;
14098;SDS011;7126;48.458;7.930;2022-10-31T01:03:06;0.60;;;0.60;;
14098;SDS011;7126;48.458;7.930;2022-10-31T01:05:32;0.63;;;0.63;;
14098;SDS011;7126;48.458;7.930;2022-10-31T01:07:58;0.57;;;0.57;;
14098;SDS011;7126;48.458;7.930;2022-10-31T01:10:24;3.38;;;1.15;;
14098;SDS011;7126;48.458;7.930;2022-10-31T01:12:50;0.80;;;0.80;;
14098;SDS011;7126;48.458;7.930;2022-10-31T01:15:17;2.03;;;0.80;;
14098;SDS011;7126;48.458;7.930;2022-10-31T01:17:45;0.65;;;0.65;;
14098;SDS011;7126;48.458;7.930;2022-10-31T01:20:12;0.40;;;0.40;;
14098;SDS011;7126;48.458;7.930;2022-10-31T01:22:39;2.83;;;0.50;;
14098;SDS011;7126;48.458;7.930;2022-10-31T01:25:04;0.85;;;0.85;;
14098;SDS011;7126;48.458;7.930;2022-10-31T01:27:31;0.90;;;0.90;;
14098;SDS011;7126;48.458;7.930;2022-10-31T01:29:57;0.60;;;0.60;;
14098;SDS011;7126;48.458;7.930;2022-10-31T01:32:22;0.55;;;0.55;;
14098;SDS011;7126;48.458;7.930;2022-10-31T01:34:48;0.70;;;0.70;;
14098;SDS011;7126;48.458;7.930;2022-10-31T01:37:14;0.50;;;0.50;;
14098;SDS011;7126;48.458;7.930;2022-10-31T01:39:39;0.68;;;0.68;;
14098;SDS011;7126;48.458;7.930;2022-10-31T01:42:05;0.90;;;0.90;;
14098;SDS011;7126;48.458;7.930;2022-10-31T01:57:29;1.08;;;1.08;;
14098;SDS011;7126;48.458;7.930;2022-10-31T01:59:57;0.60;;;0.60;;
14098;SDS011;7126;48.458;7.930;2022-10-31T02:02:26;0.88;;;0.60;;
14098;SDS011;7126;48.458;7.930;2022-10-31T02:04:55;0.82;;;0.82;;
14098;SDS011;7126;48.458;7.930;2022-10-31T02:07:25;0.60;;;0.60;;
14098;SDS011;7126;48.458;7.930;2022-10-31T02:09:54;1.10;;;0.68;;
14098;SDS011;7126;48.458;7.930;2022-10-31T02:12:22;0.63;;;0.63;;
14098;SDS011;7126;48.458;7.930;2022-10-31T02:14:48;1.20;;;0.60;;
14098;SDS011;7126;48.458;7.930;2022-10-31T02:17:13;0.70;;;0.70;;
14098;SDS011;7126;48.458;7.930;2022-10-31T02:19:52;0.50;;;0.50;;
14098;SDS011;7126;48.458;7.930;2022-10-31T02:22:39;0.80;;;0.80;;
14098;SDS011;7126;48.458;7.930;2022-10-31T02:33:52;0.90;;;0.90;;
14098;SDS011;7126;48.458;7.930;2022-10-31T02:36:32;0.40;;;0.40;;
14098;SDS011;7126;48.458;7.930;2022-10-31T02:39:15;0.35;;;0.35;;
14098;SDS011;7126;48.458;7.930;2022-10-31T02:41:53;0.70;;;0.70;;
14098;SDS011;7126;48.458;7.930;2022-10-31T02:47:09;0.82;;;0.82;;
14098;SDS011;7126;48.458;7.930;2022-10-31T02:49:42;0.70;;;0.70;;
14098;SDS011;7126;48.458;7.930;2022-10-31T02:52:21;0.85;;;0.70;;
14098;SDS011;7126;48.458;7.930;2022-10-31T02:54:50;0.60;;;0.60;;
14098;SDS011;7126;48.458;7.930;2022-10-31T02:57:17;0.60;;;0.60;;
14098;SDS011;7126;48.458;7.930;2022-10-31T02:59:52;1.00;;;0.90;;
14098;SDS011;7126;48.458;7.930;2022-10-31T03:05:08;1.00;;;0.73;;
14098;SDS011;7126;48.458;7.930;2022-10-31T03:08:00;0.50;;;0.50;;
14098;SDS011;7126;48.458;7.930;2022-10-31T03:13:24;0.40;;;0.40;;
14098;SDS011;7126;48.458;7.930;2022-10-31T03:15:53;0.45;;;0.45;;
14098;SDS011;7126;48.458;7.930;2022-10-31T03:18:48;0.90;;;0.73;;
14098;SDS011;7126;48.458;7.930;2022-10-31T03:21:20;1.40;;;1.33;;
14098;SDS011;7126;48.458;7.930;2022-10-31T03:23:50;1.25;;;1.15;;
14098;SDS011;7126;48.458;7.930;2022-10-31T03:26:17;0.73;;;0.70;;
14098;SDS011;7126;48.458;7.930;2022-10-31T03:31:26;0.70;;;0.70;;
14098;SDS011;7126;48.458;7.930;2022-10-31T03:33:56;0.82;;;0.77;;
14098;SDS011;7126;48.458;7.930;2022-10-31T03:36:24;0.75;;;0.70;;
14098;SDS011;7126;48.458;7.930;2022-10-31T03:38:51;0.40;;;0.40;;
14098;SDS011;7126;48.458;7.930;2022-10-31T03:41:19;0.55;;;0.43;;
14098;SDS011;7126;48.458;7.930;2022-10-31T03:43:58;0.60;;;0.60;;
14098;SDS011;7126;48.458;7.930;2022-10-31T03:46:29;0.70;;;0.70;;
14098;SDS011;7126;48.458;7.930;2022-10-31T03:48:55;0.57;;;0.57;;
14098;SDS011;7126;48.458;7.930;2022-10-31T03:51:25;0.40;;;0.40;;
14098;SDS011;7126;48.458;7.930;2022-10-31T03:54:15;1.45;;;1.27;;
14098;SDS011;7126;48.458;7.930;2022-10-31T03:56:52;1.55;;;0.90;;
14098;SDS011;7126;48.458;7.930;2022-10-31T03:59:23;0.65;;;0.65;;
14098;SDS011;7126;48.458;7.930;2022-10-31T04:02:02;0.50;;;0.50;;
14098;SDS011;7126;48.458;7.930;2022-10-31T04:04:31;0.50;;;0.50;;
14098;SDS011;7126;48.458;7.930;2022-10-31T04:06:58;0.40;;;0.40;;
14098;SDS011;7126;48.458;7.930;2022-10-31T04:09:25;0.43;;;0.43;;
14098;SDS011;7126;48.458;7.930;2022-10-31T04:11:53;1.17;;;1.10;;
14098;SDS011;7126;48.458;7.930;2022-10-31T04:14:22;0.40;;;0.40;;
14098;SDS011;7126;48.458;7.930;2022-10-31T04:16:50;1.58;;;1.48;;
14098;SDS011;7126;48.458;7.930;2022-10-31T04:19:16;0.80;;;0.68;;
14098;SDS011;7126;48.458;7.930;2022-10-31T04:21:41;0.30;;;0.30;;
14098;SDS011;7126;48.458;7.930;2022-10-31T04:24:08;0.77;;;0.77;;
14098;SDS011;7126;48.458;7.930;2022-10-31T04:26:34;0.75;;;0.75;;
14098;SDS011;7126;48.458;7.930;2022-10-31T04:29:00;0.60;;;0.60;;
14098;SDS011;7126;48.458;7.930;2022-10-31T04:31:25;0.88;;;0.88;;
14098;SDS011;7126;48.458;7.930;2022-10-31T04:33:51;0.45;;;0.45;;
14098;SDS011;7126;48.458;7.930;2022-10-31T04:36:17;0.63;;;0.63;;
14098;SDS011;7126;48.458;7.930;2022-10-31T04:38:42;0.55;;;0.55;;
14098;SDS011;7126;48.458;7.930;2022-10-31T04:41:08;0.65;;;0.65;;
14098;SDS011;7126;48.458;7.930;2022-10-31T04:43:33;0.43;;;0.43;;
14098;SDS011;7126;48.458;7.930;2022-10-31T04:45:59;0.88;;;0.88;;
14098;SDS011;7126;48.458;7.930;2022-10-31T04:48:25;0.30;;;0.30;;
14098;SDS011;7126;48.458;7.930;2022-10-31T04:50:50;2.53;;;0.70;;
14098;SDS011;7126;48.458;7.930;2022-10-31T04:53:16;0.47;;;0.47;;
14098;SDS011;7126;48.458;7.930;2022-10-31T04:55:41;0.35;;;0.35;;
14098;SDS011;7126;48.458;7.930;2022-10-31T04:58:07;0.73;;;0.73;;
14098;SDS011;7126;48.458;7.930;2022-10-31T05:00:32;0.30;;;0.30;;
14098;SDS011;7126;48.458;7.930;2022-10-31T05:02:58;0.65;;;0.65;;
14098;SDS011;7126;48.458;7.930;2022-10-31T05:05:25;0.88;;;0.88;;
14098;SDS011;7126;48.458;7.930;2022-10-31T05:07:53;0.40;;;0.40;;
14098;SDS011;7126;48.458;7.930;2022-10-31T05:10:20;0.55;;;0.55;;
14098;SDS011;7126;48.458;7.930;2022-10-31T05:12:52;0.80;;;0.80;;
14098;SDS011;7126;48.458;7.930;2022-10-31T05:15:19;0.55;;;0.55;;
14098;SDS011;7126;48.458;7.930;2022-10-31T05:17:47;0.93;;;0.93;;
14098;SDS011;7126;48.458;7.930;2022-10-31T05:20:13;0.63;;;0.63;;
14098;SDS011;7126;48.458;7.930;2022-10-31T05:22:43;0.47;;;0.47;;
14098;SDS011;7126;48.458;7.930;2022-10-31T05:25:10;1.35;;;1.25;;
14098;SDS011;7126;48.458;7.930;2022-10-31T05:27:43;0.75;;;0.75;;
14098;SDS011;7126;48.458;7.930;2022-10-31T05:30:11;0.55;;;0.55;;
14098;SDS011;7126;48.458;7.930;2022-10-31T05:32:45;0.63;;;0.63;;
14098;SDS011;7126;48.458;7.930;2022-10-31T05:35:14;1.05;;;0.70;;
14098;SDS011;7126;48.458;7.930;2022-10-31T05:37:41;2.45;;;0.90;;
14098;SDS011;7126;48.458;7.930;2022-10-31T05:40:08;1.13;;;1.02;;
14098;SDS011;7126;48.458;7.930;2022-10-31T05:42:35;0.60;;;0.60;;
14098;SDS011;7126;48.458;7.930;2022-10-31T05:45:00;0.70;;;0.70;;
14098;SDS011;7126;48.458;7.930;2022-10-31T05:47:26;0.70;;;0.70;;
14098;SDS011;7126;48.458;7.930;2022-10-31T05:49:52;0.38;;;0.38;;
14098;SDS011;7126;48.458;7.930;2022-10-31T05:52:17;0.65;;;0.65;;
14098;SDS011;7126;48.458;7.930;2022-10-31T05:54:43;0.55;;;0.55;;
14098;SDS011;7126;48.458;7.930;2022-10-31T05:57:09;0.50;;;0.50;;
14098;SDS011;7126;48.458;7.930;2022-10-31T05:59:34;0.55;;;0.55;;
14098;SDS011;7126;48.458;7.930;2022-10-31T06:02:00;1.95;;;0.88;;
14098;SDS011;7126;48.458;7.930;2022-10-31T06:04:25;0.45;;;0.45;;
14098;SDS011;7126;48.458;7.930;2022-10-31T06:06:51;0.60;;;0.60;;
14098;SDS011;7126;48.458;7.930;2022-10-31T06:09:16;0.80;;;0.80;;
14098;SDS011;7126;48.458;7.930;2022-10-31T06:11:42;0.52;;;0.52;;
14098;SDS011;7126;48.458;7.930;2022-10-31T06:14:08;0.60;;;0.60;;
14098;SDS011;7126;48.458;7.930;2022-10-31T06:16:33;0.60;;;0.60;;
14098;SDS011;7126;48.458;7.930;2022-10-31T06:18:59;0.47;;;0.47;;
14098;SDS011;7126;48.458;7.930;2022-10-31T06:21:24;0.60;;;0.60;;
14098;SDS011;7126;48.458;7.930;2022-10-31T06:24:08;0.60;;;0.60;;
14098;SDS011;7126;48.458;7.930;2022-10-31T06:26:34;0.88;;;0.88;;
14098;SDS011;7126;48.458;7.930;2022-10-31T06:28:59;1.60;;;0.90;;
14098;SDS011;7126;48.458;7.930;2022-10-31T06:31:25;1.48;;;1.00;;
14098;SDS011;7126;48.458;7.930;2022-10-31T06:33:50;0.68;;;0.68;;
14098;SDS011;7126;48.458;7.930;2022-10-31T06:36:16;0.38;;;0.38;;
14098;SDS011;7126;48.458;7.930;2022-10-31T06:38:41;0.50;;;0.50;;
14098;SDS011;7126;48.458;7.930;2022-10-31T06:41:07;0.90;;;0.60;;
14098;SDS011;7126;48.458;7.930;2022-10-31T06:43:32;0.50;;;0.50;;
14098;SDS011;7126;48.458;7.930;2022-10-31T06:46:01;0.60;;;0.60;;
14098;SDS011;7126;48.458;7.930;2022-10-31T06:48:28;0.57;;;0.57;;
14098;SDS011;7126;48.458;7.930;2022-10-31T06:50:56;1.27;;;0.70;;
14098;SDS011;7126;48.458;7.930;2022-10-31T06:53:25;0.63;;;0.63;;
14098;SDS011;7126;48.458;7.930;2022-10-31T06:55:52;0.60;;;0.52;;
14098;SDS011;7126;48.458;7.930;2022-10-31T06:58:17;0.80;;;0.40;;
14098;SDS011;7126;48.458;7.930;2022-10-31T07:00:43;0.45;;;0.45;;
14098;SDS011;7126;48.458;7.930;2022-10-31T07:03:12;0.98;;;0.98;;
14098;SDS011;7126;48.458;7.930;2022-10-31T07:05:38;0.50;;;0.50;;
14098;SDS011;7126;48.458;7.930;2022-10-31T07:08:05;0.82;;;0.82;;
14098;SDS011;7126;48.458;7.930;2022-10-31T07:10:33;0.60;;;0.60;;
14098;SDS011;7126;48.458;7.930;2022-10-31T07:13:00;1.10;;;1.10;;
14098;SDS011;7126;48.458;7.930;2022-10-31T07:15:28;0.40;;;0.40;;
14098;SDS011;7126;48.458;7.930;2022-10-31T07:18:04;0.90;;;0.90;;
14098;SDS011;7126;48.458;7.930;2022-10-31T07:20:32;0.85;;;0.85;;
14098;SDS011;7126;48.458;7.930;2022-10-31T07:22:57;0.60;;;0.60;;
14098;SDS011;7126;48.458;7.930;2022-10-31T07:25:23;0.60;;;0.60;;
14098;SDS011;7126;48.458;7.930;2022-10-31T07:27:50;0.60;;;0.60;;
14098;SDS011;7126;48.458;7.930;2022-10-31T07:30:16;1.08;;;0.88;;
14098;SDS011;7126;48.458;7.930;2022-10-31T07:32:46;0.73;;;0.73;;
14098;SDS011;7126;48.458;7.930;2022-10-31T07:35:13;1.30;;;0.50;;
14098;SDS011;7126;48.458;7.930;2022-10-31T07:37:40;0.70;;;0.70;;
14098;SDS011;7126;48.458;7.930;2022-10-31T07:40:06;0.77;;;0.77;;
14098;SDS011;7126;48.458;7.930;2022-10-31T07:42:39;1.23;;;1.13;;
14098;SDS011;7126;48.458;7.930;2022-10-31T07:45:08;0.60;;;0.60;;
14098;SDS011;7126;48.458;7.930;2022-10-31T07:47:44;0.45;;;0.45;;
14098;SDS011;7126;48.458;7.930;2022-10-31T07:50:18;0.82;;;0.82;;
14098;SDS011;7126;48.458;7.930;2022-10-31T07:52:45;0.73;;;0.73;;
14098;SDS011;7126;48.458;7.930;2022-10-31T07:55:11;0.57;;;0.57;;
14098;SDS011;7126;48.458;7.930;2022-10-31T07:57:37;1.55;;;0.90;;
14098;SDS011;7126;48.458;7.930;2022-10-31T08:00:03;0.85;;;0.85;;
14098;SDS011;7126;48.458;7.930;2022-10-31T08:02:30;0.77;;;0.77;;
14098;SDS011;7126;48.458;7.930;2022-10-31T08:04:55;0.60;;;0.60;;
14098;SDS011;7126;48.458;7.930;2022-10-31T08:07:21;0.73;;;0.73;;
14098;SDS011;7126;48.458;7.930;2022-10-31T08:09:46;0.70;;;0.70;;
14098;SDS011;7126;48.458;7.930;2022-10-31T08:12:12;0.98;;;0.98;;
14098;SDS011;7126;48.458;7.930;2022-10-31T08:14:37;0.60;;;0.60;;
14098;SDS011;7126;48.458;7.930;2022-10-31T08:17:03;0.70;;;0.70;;
14098;SDS011;7126;48.458;7.930;2022-10-31T08:19:29;0.70;;;0.70;;
14098;SDS011;7126;48.458;7.930;2022-10-31T08:21:54;0.70;;;0.70;;
14098;SDS011;7126;48.458;7.930;2022-10-31T08:24:23;0.50;;;0.50;;
14098;SDS011;7126;48.458;7.930;2022-10-31T08:26:48;0.50;;;0.50;;
14098;SDS011;7126;48.458;7.930;2022-10-31T08:29:14;0.70;;;0.70;;
14098;SDS011;7126;48.458;7.930;2022-10-31T08:31:40;1.77;;;1.10;;
14098;SDS011;7126;48.458;7.930;2022-10-31T08:34:06;0.50;;;0.50;;
14098;SDS011;7126;48.458;7.930;2022-10-31T08:36:32;1.00;;;1.00;;
14098;SDS011;7126;48.458;7.930;2022-10-31T08:38:57;0.60;;;0.60;;
14098;SDS011;7126;48.458;7.930;2022-10-31T08:41:23;0.57;;;0.57;;
14098;SDS011;7126;48.458;7.930;2022-10-31T08:43:48;0.60;;;0.60;;
14098;SDS011;7126;48.458;7.930;2022-10-31T08:46:14;0.80;;;0.80;;
14098;SDS011;7126;48.458;7.930;2022-10-31T08:48:40;0.70;;;0.70;;
14098;SDS011;7126;48.458;7.930;2022-10-31T08:51:05;0.60;;;0.60;;
14098;SDS011;7126;48.458;7.930;2022-10-31T08:53:31;1.00;;;0.95;;
14098;SDS011;7126;48.458;7.930;2022-10-31T08:55:57;0.80;;;0.80;;
14098;SDS011;7126;48.458;7.930;2022-10-31T08:58:23;3.30;;;0.77;;
14098;SDS011;7126;48.458;7.930;2022-10-31T09:00:50;0.85;;;0.85;;
14098;SDS011;7126;48.458;7.930;2022-10-31T09:03:21;0.60;;;0.60;;
14098;SDS011;7126;48.458;7.930;2022-10-31T09:05:48;0.40;;;0.40;;
14098;SDS011;7126;48.458;7.930;2022-10-31T09:08:14;1.15;;;1.05;;
14098;SDS011;7126;48.458;7.930;2022-10-31T09:10:41;1.45;;;0.82;;
14098;SDS011;7126;48.458;7.930;2022-10-31T09:13:08;1.33;;;1.00;;
14098;SDS011;7126;48.458;7.930;2022-10-31T09:15:36;0.68;;;0.65;;
14098;SDS011;7126;48.458;7.930;2022-10-31T09:18:04;0.70;;;0.70;;
14098;SDS011;7126;48.458;7.930;2022-10-31T09:20:31;1.15;;;0.77;;
14098;SDS011;7126;48.458;7.930;2022-10-31T09:22:58;0.60;;;0.60;;
14098;SDS011;7126;48.458;7.930;2022-10-31T09:25:32;0.73;;;0.73;;
14098;SDS011;7126;48.458;7.930;2022-10-31T09:27:59;0.80;;;0.80;;
14098;SDS011;7126;48.458;7.930;2022-10-31T09:30:26;0.88;;;0.88;;
14098;SDS011;7126;48.458;7.930;2022-10-31T09:33:00;0.90;;;0.90;;
14098;SDS011;7126;48.458;7.930;2022-10-31T09:35:34;1.02;;;0.90;;
14098;SDS011;7126;48.458;7.930;2022-10-31T09:38:04;0.88;;;0.85;;
14098;SDS011;7126;48.458;7.930;2022-10-31T09:40:36;0.60;;;0.60;;
14098;SDS011;7126;48.458;7.930;2022-10-31T09:51:16;0.55;;;0.55;;
14098;SDS011;7126;48.458;7.930;2022-10-31T09:56:25;0.57;;;0.57;;
14098;SDS011;7126;48.458;7.930;2022-10-31T09:58:59;0.98;;;0.98;;
14098;SDS011;7126;48.458;7.930;2022-10-31T10:01:32;1.65;;;0.93;;
14098;SDS011;7126;48.458;7.930;2022-10-31T10:04:32;1.98;;;0.95;;
14098;SDS011;7126;48.458;7.930;2022-10-31T10:07:21;1.00;;;1.00;;
14098;SDS011;7126;48.458;7.930;2022-10-31T10:09:59;0.68;;;0.68;;
14098;SDS011;7126;48.458;7.930;2022-10-31T10:26:30;0.98;;;0.95;;
14098;SDS011;7126;48.458;7.930;2022-10-31T10:29:02;0.75;;;0.75;;
14098;SDS011;7126;48.458;7.930;2022-10-31T10:31:41;0.75;;;0.75;;
14098;SDS011;7126;48.458;7.930;2022-10-31T10:37:03;0.73;;;0.73;;
14098;SDS011;7126;48.458;7.930;2022-10-31T10:39:44;0.65;;;0.65;;
14098;SDS011;7126;48.458;7.930;2022-10-31T10:42:15;0.80;;;0.80;;
14098;SDS011;7126;48.458;7.930;2022-10-31T10:45:00;1.27;;;1.20;;
14098;SDS011;7126;48.458;7.930;2022-10-31T10:47:58;2.38;;;0.57;;
14098;SDS011;7126;48.458;7.930;2022-10-31T10:50:49;0.68;;;0.68;;
14098;SDS011;7126;48.458;7.930;2022-10-31T10:59:13;1.10;;;1.10;;
14098;SDS011;7126;48.458;7.930;2022-10-31T11:01:42;1.02;;;1.02;;
14098;SDS011;7126;48.458;7.930;2022-10-31T11:04:20;2.20;;;0.88;;
14098;SDS011;7126;48.458;7.930;2022-10-31T11:07:07;0.88;;;0.88;;
14098;SDS011;7126;48.458;7.930;2022-10-31T11:09:34;1.48;;;1.23;;
14098;SDS011;7126;48.458;7.930;2022-10-31T11:12:08;0.80;;;0.80;;
14098;SDS011;7126;48.458;7.930;2022-10-31T11:14:36;0.63;;;0.63;;
14098;SDS011;7126;48.458;7.930;2022-10-31T11:17:17;0.50;;;0.50;;
14098;SDS011;7126;48.458;7.930;2022-10-31T11:19:58;0.75;;;0.70;;
14098;SDS011;7126;48.458;7.930;2022-10-31T11:22:29;0.82;;;0.82;;
14098;SDS011;7126;48.458;7.930;2022-10-31T11:24:54;5.95;;;0.88;;
14098;SDS011;7126;48.458;7.930;2022-10-31T11:27:21;1.52;;;1.42;;
14098;SDS011;7126;48.458;7.930;2022-10-31T11:29:49;2.92;;;1.20;;
14098;SDS011;7126;48.458;7.930;2022-10-31T11:32:17;0.75;;;0.75;;
14098;SDS011;7126;48.458;7.930;2022-10-31T11:34:45;6.03;;;1.10;;
14098;SDS011;7126;48.458;7.930;2022-10-31T11:39:40;1.77;;;1.67;;
14098;SDS011;7126;48.458;7.930;2022-10-31T11:42:08;5.68;;;1.52;;
14098;SDS011;7126;48.458;7.930;2022-10-31T11:44:34;1.35;;;1.10;;
14098;SDS011;7126;48.458;7.930;2022-10-31T11:47:00;0.90;;;0.47;;
14098;SDS011;7126;48.458;7.930;2022-10-31T11:49:41;0.90;;;0.90;;
14098;SDS011;7126;48.458;7.930;2022-10-31T11:52:15;0.73;;;0.73;;
14098;SDS011;7126;48.458;7.930;2022-10-31T11:54:47;2.45;;;0.98;;
14098;SDS011;7126;48.458;7.930;2022-10-31T11:57:26;0.88;;;0.88;;
14098;SDS011;7126;48.458;7.930;2022-10-31T11:59:54;0.90;;;0.90;;
14098;SDS011;7126;48.458;7.930;2022-10-31T12:02:22;1.38;;;1.30;;
14098;SDS011;7126;48.458;7.930;2022-10-31T12:04:53;1.42;;;1.33;;
14098;SDS011;7126;48.458;7.930;2022-10-31T12:07:27;0.90;;;0.90;;
14098;SDS011;7126;48.458;7.930;2022-10-31T12:09:53;0.88;;;0.88;;
14098;SDS011;7126;48.458;7.930;2022-10-31T12:17:39;1.38;;;1.15;;
14098;SDS011;7126;48.458;7.930;2022-10-31T12:34:24;1.13;;;1.10;;
14098;SDS011;7126;48.458;7.930;2022-10-31T12:37:14;0.98;;;0.98;;
14098;SDS011;7126;48.458;7.930;2022-10-31T12:40:18;1.85;;;1.75;;
14098;SDS011;7126;48.458;7.930;2022-10-31T12:48:44;1.05;;;1.05;;
14098;SDS011;7126;48.458;7.930;2022-10-31T12:54:16;1.05;;;1.05;;
14098;SDS011;7126;48.458;7.930;2022-10-31T12:56:53;1.88;;;0.88;;
14098;SDS011;7126;48.458;7.930;2022-10-31T12:59:35;0.98;;;0.98;;
14098;SDS011;7126;48.458;7.930;2022-10-31T13:05:04;2.38;;;1.38;;
14098;SDS011;7126;48.458;7.930;2022-10-31T13:07:36;1.40;;;1.40;;
14098;SDS011;7126;48.458;7.930;2022-10-31T13:13:04;1.33;;;1.27;;
14098;SDS011;7126;48.458;7.930;2022-10-31T13:15:35;1.00;;;1.00;;
14098;SDS011;7126;48.458;7.930;2022-10-31T13:18:27;4.07;;;1.50;;
14098;SDS011;7126;48.458;7.930;2022-10-31T13:20:57;1.88;;;1.77;;
14098;SDS011;7126;48.458;7.930;2022-10-31T13:23:31;1.02;;;1.02;;
14098;SDS011;7126;48.458;7.930;2022-10-31T13:25:59;1.23;;;1.23;;
14098;SDS011;7126;48.458;7.930;2022-10-31T13:28:35;1.50;;;1.40;;
14098;SDS011;7126;48.458;7.930;2022-10-31T13:31:07;1.00;;;1.00;;
14098;SDS011;7126;48.458;7.930;2022-10-31T13:36:24;1.50;;;1.35;;
14098;SDS011;7126;48.458;7.930;2022-10-31T13:42:03;1.10;;;1.10;;
14098;SDS011;7126;48.458;7.930;2022-10-31T13:44:37;0.90;;;0.90;;
14098;SDS011;7126;48.458;7.930;2022-10-31T13:47:03;1.40;;;1.40;;
14098;SDS011;7126;48.458;7.930;2022-10-31T13:49:44;1.58;;;1.58;;
14098;SDS011;7126;48.458;7.930;2022-10-31T13:54:36;2.15;;;1.23;;
14098;SDS011;7126;48.458;7.930;2022-10-31T14:00:43;1.20;;;1.20;;
14098;SDS011;7126;48.458;7.930;2022-10-31T14:02:52;1.73;;;1.65;;
14098;SDS011;7126;48.458;7.930;2022-10-31T14:05:25;1.40;;;1.40;;
14098;SDS011;7126;48.458;7.930;2022-10-31T14:07:59;2.47;;;1.17;;
14098;SDS011;7126;48.458;7.930;2022-10-31T14:10:37;1.58;;;1.48;;
14098;SDS011;7126;48.458;7.930;2022-10-31T14:13:21;1.45;;;1.38;;
14098;SDS011;7126;48.458;7.930;2022-10-31T14:16:24;1.15;;;1.15;;
14098;SDS011;7126;48.458;7.930;2022-10-31T14:18:56;1.13;;;1.13;;
14098;SDS011;7126;48.458;7.930;2022-10-31T14:23:54;1.65;;;1.58;;
14098;SDS011;7126;48.458;7.930;2022-10-31T14:26:31;1.85;;;1.75;;
14098;SDS011;7126;48.458;7.930;2022-10-31T14:31:39;2.05;;;1.95;;
14098;SDS011;7126;48.458;7.930;2022-10-31T14:34:24;2.50;;;2.30;;
14098;SDS011;7126;48.458;7.930;2022-10-31T14:36:59;2.10;;;2.00;;
14098;SDS011;7126;48.458;7.930;2022-10-31T14:39:39;1.75;;;1.30;;
14098;SDS011;7126;48.458;7.930;2022-10-31T14:48:10;3.22;;;1.55;;
14098;SDS011;7126;48.458;7.930;2022-10-31T14:50:50;1.85;;;1.75;;
14098;SDS011;7126;48.458;7.930;2022-10-31T14:55:47;1.85;;;1.80;;
14098;SDS011;7126;48.458;7.930;2022-10-31T14:58:16;1.60;;;1.60;;
14098;SDS011;7126;48.458;7.930;2022-10-31T15:00:48;1.90;;;1.80;;
14098;SDS011;7126;48.458;7.930;2022-10-31T15:03:21;2.28;;;2.17;;
14098;SDS011;7126;48.458;7.930;2022-10-31T15:05:55;1.48;;;1.38;;
14098;SDS011;7126;48.458;7.930;2022-10-31T15:08:31;2.00;;;1.90;;
14098;SDS011;7126;48.458;7.930;2022-10-31T15:11:16;1.92;;;1.50;;
14098;SDS011;7126;48.458;7.930;2022-10-31T15:13:50;7.53;;;1.50;;
14098;SDS011;7126;48.458;7.930;2022-10-31T15:16:24;1.88;;;1.77;;
14098;SDS011;7126;48.458;7.930;2022-10-31T15:18:58;1.52;;;1.50;;
14098;SDS011;7126;48.458;7.930;2022-10-31T15:21:27;1.25;;;1.25;;
14098;SDS011;7126;48.458;7.930;2022-10-31T15:23:54;1.52;;;1.42;;
14098;SDS011;7126;48.458;7.930;2022-10-31T15:26:26;1.60;;;1.58;;
14098;SDS011;7126;48.458;7.930;2022-10-31T15:29:01;2.65;;;2.05;;
14098;SDS011;7126;48.458;7.930;2022-10-31T15:31:29;2.25;;;1.60;;
14098;SDS011;7126;48.458;7.930;2022-10-31T15:33:56;1.60;;;1.60;;
14098;SDS011;7126;48.458;7.930;2022-10-31T15:36:25;1.02;;;1.02;;
14098;SDS011;7126;48.458;7.930;2022-10-31T15:38:51;1.33;;;1.33;;
14098;SDS011;7126;48.458;7.930;2022-10-31T15:44:12;1.00;;;1.00;;
14098;SDS011;7126;48.458;7.930;2022-10-31T15:46:40;1.33;;;1.33;;
14098;SDS011;7126;48.458;7.930;2022-10-31T15:49:12;4.88;;;1.27;;
14098;SDS011;7126;48.458;7.930;2022-10-31T15:51:51;1.30;;;1.23;;
14098;SDS011;7126;48.458;7.930;2022-10-31T15:54:17;1.52;;;1.42;;
14098;SDS011;7126;48.458;7.930;2022-10-31T15:56:42;2.03;;;1.40;;
14098;SDS011;7126;48.458;7.930;2022-10-31T15:59:13;1.00;;;1.00;;
14098;SDS011;7126;48.458;7.930;2022-10-31T16:01:58;1.70;;;1.60;;
14098;SDS011;7126;48.458;7.930;2022-10-31T16:04:33;1.77;;;1.70;;
14098;SDS011;7126;48.458;7.930;2022-10-31T16:07:14;2.90;;;1.30;;
14098;SDS011;7126;48.458;7.930;2022-10-31T16:09:52;1.42;;;1.20;;
14098;SDS011;7126;48.458;7.930;2022-10-31T16:12:18;1.35;;;1.35;;
14098;SDS011;7126;48.458;7.930;2022-10-31T16:14:45;1.10;;;1.10;;
14098;SDS011;7126;48.458;7.930;2022-10-31T16:17:12;1.90;;;1.80;;
14098;SDS011;7126;48.458;7.930;2022-10-31T16:19:58;1.35;;;1.30;;
14098;SDS011;7126;48.458;7.930;2022-10-31T16:22:31;1.70;;;1.65;;
14098;SDS011;7126;48.458;7.930;2022-10-31T16:27:37;1.77;;;1.25;;
14098;SDS011;7126;48.458;7.930;2022-10-31T16:32:55;1.40;;;1.30;;
14098;SDS011;7126;48.458;7.930;2022-10-31T16:37:59;1.63;;;1.63;;
14098;SDS011;7126;48.458;7.930;2022-10-31T16:40:25;3.92;;;1.77;;
14098;SDS011;7126;48.458;7.930;2022-10-31T16:42:51;2.03;;;1.92;;
14098;SDS011;7126;48.458;7.930;2022-10-31T16:45:18;1.95;;;1.80;;
14098;SDS011;7126;48.458;7.930;2022-10-31T16:47:48;1.75;;;1.70;;
14098;SDS011;7126;48.458;7.930;2022-10-31T16:50:16;3.42;;;1.50;;
14098;SDS011;7126;48.458;7.930;2022-10-31T16:52:45;1.77;;;1.67;;
14098;SDS011;7126;48.458;7.930;2022-10-31T16:55:12;1.30;;;1.30;;
14098;SDS011;7126;48.458;7.930;2022-10-31T16:57:39;2.83;;;1.50;;
14098;SDS011;7126;48.458;7.930;2022-10-31T17:00:12;3.25;;;2.95;;
14098;SDS011;7126;48.458;7.930;2022-10-31T17:02:42;2.63;;;1.85;;
14098;SDS011;7126;48.458;7.930;2022-10-31T17:05:10;2.78;;;2.58;;
14098;SDS011;7126;48.458;7.930;2022-10-31T17:07:37;3.10;;;2.53;;
14098;SDS011;7126;48.458;7.930;2022-10-31T17:10:03;2.28;;;1.92;;
14098;SDS011;7126;48.458;7.930;2022-10-31T17:12:29;2.40;;;2.30;;
14098;SDS011;7126;48.458;7.930;2022-10-31T17:14:55;2.20;;;2.10;;
14098;SDS011;7126;48.458;7.930;2022-10-31T17:17:20;1.92;;;1.83;;
14098;SDS011;7126;48.458;7.930;2022-10-31T17:19:46;2.30;;;2.20;;
14098;SDS011;7126;48.458;7.930;2022-10-31T17:22:12;2.35;;;2.25;;
14098;SDS011;7126;48.458;7.930;2022-10-31T17:24:39;1.45;;;1.35;;
14098;SDS011;7126;48.458;7.930;2022-10-31T17:27:05;1.42;;;1.35;;
14098;SDS011;7126;48.458;7.930;2022-10-31T17:29:31;2.00;;;1.90;;
14098;SDS011;7126;48.458;7.930;2022-10-31T17:31:57;2.10;;;2.00;;
14098;SDS011;7126;48.458;7.930;2022-10-31T17:34:23;1.55;;;1.50;;
14098;SDS011;7126;48.458;7.930;2022-10-31T17:36:50;1.73;;;1.63;;